Time;durP1;ratioP1;P1;durP2;ratioP2;P2;SDS_P1;SDS_P2;PMS_P1;PMS_P2;Temp;Humidity;BMP_temperature;BMP_pressure;BME280_temperature;BME280_humidity;BME280_pressure;Samples;Min_cycle;Max_cycle;Signal;HPM_P1;HPM_P2
2022/09/24 00:01:14;;;;;;;12.75;7.20;;;;;;;11.43;100.00;100098.72;20813029;28;20080;-68
2022/09/24 00:11:20;;;;;;;13.23;7.38;;;;;;;11.19;100.00;100094.06;20812710;28;20050;-68
2022/09/24 00:21:22;;;;;;;;;;;;;;;11.21;100.00;100071.31;20812384;28;20608;-68
2022/09/24 00:31:24;;;;;;;10.00;7.15;;;;;;;11.15;100.00;100069.69;20812040;28;19924;-69
2022/09/24 00:41:25;;;;;;;15.10;7.00;;;;;;;11.05;100.00;100055.94;20810099;28;20049;-68
2022/09/24 00:51:27;;;;;;;12.85;7.28;;;;;;;11.04;100.00;100040.28;20809832;28;20452;-69
2022/09/24 01:01:29;;;;;;;12.50;7.45;;;;;;;10.99;100.00;100047.38;20808084;28;20090;-68
2022/09/24 01:11:30;;;;;;;9.73;6.40;;;;;;;10.87;100.00;100035.41;20808137;28;20099;-68
2022/09/24 01:21:31;;;;;;;11.32;7.85;;;;;;;10.65;100.00;100028.94;20808146;28;20384;-68
2022/09/24 01:31:33;;;;;;;13.10;8.02;;;;;;;10.47;100.00;100015.34;20807162;28;20079;-69
2022/09/24 01:41:35;;;;;;;12.57;7.38;;;;;;;10.34;100.00;100013.88;20806178;28;20049;-68
2022/09/24 01:51:37;;;;;;;13.07;6.75;;;;;;;10.20;100.00;100005.41;20805782;28;20045;-69
2022/09/24 02:01:38;;;;;;;12.13;7.43;;;;;;;10.03;100.00;99990.94;20805185;28;20133;-68
2022/09/24 02:11:40;;;;;;;16.30;7.45;;;;;;;10.11;100.00;99997.75;20805742;28;20236;-68
2022/09/24 02:21:41;;;;;;;11.13;6.20;;;;;;;10.17;100.00;100001.13;20812339;28;20137;-68
2022/09/24 02:31:42;;;;;;;10.23;6.75;;;;;;;10.33;100.00;99986.00;20821056;28;20513;-67
2022/09/24 02:41:46;;;;;;;10.18;5.95;;;;;;;10.17;100.00;99974.97;20820569;28;20049;-68
2022/09/24 02:51:47;;;;;;;11.80;6.30;;;;;;;9.92;100.00;99989.44;20819403;28;20069;-68
2022/09/24 03:01:49;;;;;;;10.25;6.47;;;;;;;9.99;100.00;99976.19;20818646;28;20081;-68
2022/09/24 03:11:51;;;;;;;11.43;6.70;;;;;;;9.99;100.00;99978.81;20817389;28;20058;-68
2022/09/24 03:21:52;;;;;;;10.90;6.43;;;;;;;9.97;100.00;99967.53;20817383;28;20077;-68
2022/09/24 03:31:53;;;;;;;9.43;5.70;;;;;;;9.98;100.00;99964.03;20816499;28;20270;-68
2022/09/24 03:41:55;;;;;;;11.63;6.90;;;;;;;9.93;100.00;99978.94;20815339;28;20065;-69
2022/09/24 03:51:56;;;;;;;11.05;6.40;;;;;;;9.78;100.00;99979.25;20815001;28;20085;-69
2022/09/24 04:01:58;;;;;;;9.45;6.65;;;;;;;9.60;100.00;99971.75;20812840;28;20085;-68
2022/09/24 04:11:59;;;;;;;11.18;6.60;;;;;;;9.38;100.00;99960.81;20813509;28;20092;-68
2022/09/24 04:22:00;;;;;;;11.40;7.00;;;;;;;9.38;100.00;99966.91;20813173;28;20068;-68
2022/09/24 04:32:02;;;;;;;9.73;6.25;;;;;;;9.35;100.00;99955.66;20816487;28;20076;-68
2022/09/24 04:42:03;;;;;;;10.05;6.88;;;;;;;9.49;100.00;99957.13;20808042;28;20148;-69
2022/09/24 04:52:04;;;;;;;11.93;6.30;;;;;;;9.64;100.00;99955.13;20810839;28;20473;-69
2022/09/24 05:02:07;;;;;;;9.75;5.93;;;;;;;9.59;100.00;99965.66;20809772;28;20474;-69
2022/09/24 05:12:10;;;;;;;8.32;5.45;;;;;;;9.56;100.00;99959.63;20807774;28;20056;-68
2022/09/24 05:22:11;;;;;;;9.95;5.45;;;;;;;9.70;100.00;99962.84;20808863;28;20140;-69
2022/09/24 05:32:14;;;;;;;11.13;5.97;;;;;;;9.86;100.00;99966.00;20808430;28;20498;-69
2022/09/24 05:42:15;;;;;;;9.52;5.75;;;;;;;9.88;100.00;99961.63;20806752;28;20049;-69
2022/09/24 05:52:16;;;;;;;9.70;6.15;;;;;;;9.95;100.00;99984.13;20806277;28;20099;-69
2022/09/24 06:02:18;;;;;;;10.93;5.60;;;;;;;9.96;100.00;99978.00;20804807;28;20132;-68
2022/09/24 06:12:22;;;;;;;9.18;5.13;;;;;;;10.01;100.00;99966.59;20805225;28;20072;-69
2022/09/24 06:22:23;;;;;;;9.27;5.63;;;;;;;10.22;100.00;99988.81;20805050;28;20095;-68
2022/09/24 06:32:29;;;;;;;8.55;5.80;;;;;;;10.48;100.00;99985.66;20805024;28;20065;-66
2022/09/24 06:42:31;;;;;;;13.38;6.88;;;;;;;10.31;100.00;100007.88;20802651;28;20156;-66
2022/09/24 06:52:32;;;;;;;9.57;5.43;;;;;;;10.63;100.00;100013.25;20791808;28;20509;-66
2022/09/24 07:02:34;;;;;;;11.93;5.78;;;;;;;11.08;100.00;100007.00;20767755;28;20388;-67
2022/09/24 07:12:35;;;;;;;8.75;4.88;;;;;;;10.81;100.00;99996.28;20780932;28;20158;-69
2022/09/24 07:22:37;;;;;;;8.45;5.00;;;;;;;11.12;100.00;100003.41;20780212;28;20164;-66
2022/09/24 07:32:38;;;;;;;9.18;5.45;;;;;;;11.23;100.00;100002.25;20780649;28;20144;-66
2022/09/24 07:42:39;;;;;;;9.23;5.45;;;;;;;11.45;100.00;100013.06;20778400;28;20145;-67
2022/09/24 07:52:40;;;;;;;8.55;5.38;;;;;;;11.66;100.00;100021.28;20795687;28;20077;-67
2022/09/24 08:02:42;;;;;;;9.38;5.00;;;;;;;11.99;100.00;100023.03;20814034;28;20463;-66
2022/09/24 08:12:43;;;;;;;8.30;5.38;;;;;;;12.41;100.00;100041.09;20813453;28;20089;-66
2022/09/24 08:22:45;;;;;;;9.38;5.35;;;;;;;12.55;100.00;100033.69;20810626;28;20062;-66
2022/09/24 08:32:49;;;;;;;11.52;6.55;;;;;;;12.76;100.00;100034.78;20811633;28;20153;-66
2022/09/24 08:42:50;;;;;;;10.60;5.85;;;;;;;13.16;100.00;100023.00;20810873;28;20132;-68
2022/09/24 08:52:53;;;;;;;9.88;5.43;;;;;;;13.24;100.00;100033.31;20809895;28;20417;-67
2022/09/24 09:02:54;;;;;;;11.93;6.03;;;;;;;13.32;100.00;100041.84;20845932;22;20361;-67
2022/09/24 09:12:55;;;;;;;8.85;6.05;;;;;;;13.85;100.00;100026.00;20775279;28;20050;-68
2022/09/24 09:22:57;;;;;;;11.27;6.45;;;;;;;14.20;100.00;100039.66;20767967;28;20132;-66
2022/09/24 09:32:58;;;;;;;10.57;6.28;;;;;;;14.08;100.00;100039.22;20748624;28;20141;-66
2022/09/24 09:43:01;;;;;;;11.60;6.35;;;;;;;14.27;100.00;100042.00;20726961;28;20371;-66
2022/09/24 09:53:03;;;;;;;9.45;6.00;;;;;;;14.49;100.00;100036.00;20725206;28;20042;-68
2022/09/24 10:03:05;;;;;;;16.30;7.72;;;;;;;14.77;100.00;100027.88;20724279;28;20112;-67
2022/09/24 10:13:07;;;;;;;12.32;6.30;;;;;;;15.28;100.00;100022.31;20727524;28;20541;-67
2022/09/24 10:23:09;;;;;;;9.65;5.10;;;;;;;16.00;100.00;100016.66;20774084;28;20074;-68
2022/09/24 10:33:10;;;;;;;7.60;4.43;;;;;;;16.89;100.00;100015.22;20748314;28;20100;-66
2022/09/24 10:43:11;;;;;;;9.27;5.05;;;;;;;16.80;100.00;100013.00;20730532;28;20149;-65
2022/09/24 10:53:12;;;;;;;10.38;5.25;;;;;;;16.70;100.00;100003.75;20737864;28;20074;-68
2022/09/24 11:03:14;;;;;;;9.15;5.25;;;;;;;16.53;100.00;100008.06;20734578;28;20187;-68
2022/09/24 11:13:16;;;;;;;9.45;5.95;;;;;;;16.75;100.00;99999.16;20736108;28;20081;-66
2022/09/24 11:23:17;;;;;;;8.63;5.30;;;;;;;17.56;100.00;99980.13;20735796;28;20072;-65
2022/09/24 11:33:18;;;;;;;8.68;4.90;;;;;;;17.83;100.00;99969.09;20761166;28;20122;-69
2022/09/24 11:43:23;;;;;;;11.20;5.38;;;;;;;17.56;100.00;99956.28;20738161;28;20141;-69
2022/09/24 11:53:24;;;;;;;10.00;5.53;;;;;;;17.81;100.00;99947.09;20732455;28;20057;-66
2022/09/24 12:03:26;;;;;;;8.95;5.07;;;;;;;18.83;100.00;99951.25;20731391;28;20566;-68
2022/09/24 12:13:27;;;;;;;6.80;4.32;;;;;;;18.78;100.00;99929.44;20732368;28;20065;-69
2022/09/24 12:23:28;;;;;;;9.25;4.07;;;;;;;18.82;100.00;99925.66;20730932;28;20054;-67
2022/09/24 12:33:30;;;;;;;9.10;4.15;;;;;;;18.86;100.00;99921.91;20730263;28;20093;-67
2022/09/24 12:43:31;;;;;;;9.35;5.00;;;;;;;19.15;100.00;99913.09;20728886;28;20053;-67
2022/09/24 12:53:33;;;;;;;6.93;3.85;;;;;;;19.70;100.00;99904.50;20730172;28;20061;-67
2022/09/24 13:03:34;;;;;;;6.75;3.33;;;;;;;19.69;96.71;99899.28;20726387;28;20050;-68
2022/09/24 13:13:35;;;;;;;6.47;3.28;;;;;;;19.78;89.85;99889.88;20726661;28;20132;-68
2022/09/24 13:23:37;;;;;;;9.18;3.40;;;;;;;19.43;95.09;99892.88;20726791;28;20134;-68
2022/09/24 13:33:38;;;;;;;9.00;3.72;;;;;;;19.66;94.96;99884.41;20725884;28;20114;-68
2022/09/24 13:43:40;;;;;;;7.95;3.10;;;;;;;19.45;91.88;99878.56;20725685;28;20085;-68
2022/09/24 13:53:41;;;;;;;6.50;2.80;;;;;;;19.40;88.75;99875.34;20725436;28;20120;-68
2022/09/24 14:03:42;;;;;;;4.85;2.80;;;;;;;19.26;89.29;99874.44;20723452;28;20125;-67
2022/09/24 14:13:44;;;;;;;5.78;3.15;;;;;;;18.97;89.85;99863.75;20727212;28;20100;-67
2022/09/24 14:23:46;;;;;;;7.03;3.53;;;;;;;19.14;92.93;99865.41;20740467;28;20572;-67
2022/09/24 14:33:47;;;;;;;6.53;3.10;;;;;;;18.98;90.32;99854.03;20734891;28;20140;-69
2022/09/24 14:43:49;;;;;;;6.20;2.90;;;;;;;19.06;91.67;99855.25;20732976;28;20443;-68
2022/09/24 14:53:50;;;;;;;7.32;3.38;;;;;;;19.02;90.21;99859.06;20735448;28;20093;-69
2022/09/24 15:03:51;;;;;;;7.78;4.53;;;;;;;18.90;89.31;99851.81;20734709;28;20138;-68
2022/09/24 15:13:52;;;;;;;6.30;4.28;;;;;;;18.86;90.05;99847.63;20736851;28;20086;-69
2022/09/24 15:23:54;;;;;;;6.93;3.97;;;;;;;18.82;92.54;99844.28;20732010;28;20054;-69
2022/09/24 15:33:55;;;;;;;6.60;3.58;;;;;;;18.94;92.16;99843.56;20733558;28;20526;-69
2022/09/24 15:43:57;;;;;;;8.32;4.63;;;;;;;19.11;92.85;99845.22;20732545;28;20141;-69
2022/09/24 15:53:58;;;;;;;6.07;3.10;;;;;;;18.72;100.00;99837.81;20731224;28;20482;-69
2022/09/24 16:03:59;;;;;;;5.38;3.08;;;;;;;18.37;100.00;99837.16;20723680;28;20141;-69
2022/09/24 16:14:00;;;;;;;6.28;3.35;;;;;;;18.20;100.00;99835.47;20726588;28;20466;-68
2022/09/24 16:24:02;;;;;;;8.98;3.72;;;;;;;18.01;100.00;99840.94;20727518;28;20698;-67
2022/09/24 16:34:03;;;;;;;10.57;5.05;;;;;;;17.72;100.00;99854.88;20726544;28;20400;-70
2022/09/24 16:44:05;;;;;;;7.93;4.35;;;;;;;17.43;100.00;99862.56;20724966;28;20073;-71
2022/09/24 16:54:06;;;;;;;8.10;3.92;;;;;;;17.27;100.00;99880.19;20722993;28;20503;-70
2022/09/24 17:04:08;;;;;;;7.30;4.15;;;;;;;16.90;100.00;99882.91;20717902;28;20084;-70
2022/09/24 17:14:12;;;;;;;8.57;4.97;;;;;;;16.36;100.00;99894.38;20723737;28;20533;-69
2022/09/24 17:24:13;;;;;;;8.00;4.33;;;;;;;15.93;100.00;99903.44;20722235;28;20077;-69
2022/09/24 17:34:21;;;;;;;7.85;4.20;;;;;;;15.57;100.00;99906.75;20722329;28;20054;-69
2022/09/24 17:44:23;;;;;;;6.40;4.10;;;;;;;15.51;100.00;99918.44;20721785;28;20169;-69
2022/09/24 17:54:25;;;;;;;12.60;7.47;;;;;;;15.44;100.00;99931.97;20715247;28;20057;-69
2022/09/24 18:04:29;;;;;;;14.18;9.30;;;;;;;15.24;100.00;99938.09;20717210;28;20057;-70
2022/09/24 18:14:31;;;;;;;9.70;5.90;;;;;;;14.96;100.00;99955.06;20718735;28;20054;-69
2022/09/24 18:24:32;;;;;;;9.98;5.80;;;;;;;14.61;100.00;99959.09;20731571;28;20076;-69
2022/09/24 18:34:34;;;;;;;11.52;5.13;;;;;;;14.47;100.00;99958.75;20768275;28;20074;-70
2022/09/24 18:44:35;;;;;;;9.85;6.20;;;;;;;14.48;100.00;99950.84;20763959;28;20090;-69
2022/09/24 18:54:37;;;;;;;12.25;5.80;;;;;;;14.31;100.00;99954.06;20733082;28;20062;-69
2022/09/24 19:04:38;;;;;;;9.60;5.97;;;;;;;14.19;100.00;99956.31;20725444;28;20073;-70
2022/09/24 19:14:40;;;;;;;12.57;6.32;;;;;;;14.06;100.00;99956.78;20729769;28;20492;-70
2022/09/24 19:24:41;;;;;;;9.70;6.68;;;;;;;14.04;100.00;99963.88;20729174;28;20133;-70
2022/09/24 19:34:43;;;;;;;9.38;6.57;;;;;;;14.05;100.00;99976.13;20730996;28;20096;-70
2022/09/24 19:44:44;;;;;;;15.07;10.73;;;;;;;14.00;100.00;99985.97;20742378;28;20235;-71
2022/09/24 19:54:49;;;;;;;9.32;6.65;;;;;;;13.93;100.00;99996.75;20727447;28;20116;-71
2022/09/24 20:04:51;;;;;;;17.10;10.00;;;;;;;13.88;100.00;100002.19;20727475;28;20093;-70
2022/09/24 20:14:52;;;;;;;13.63;7.53;;;;;;;13.88;100.00;100002.19;20745975;28;20142;-70
2022/09/24 20:24:54;;;;;;;9.85;6.57;;;;;;;13.88;100.00;99996.91;20776322;28;20076;-70
2022/09/24 20:34:55;;;;;;;10.35;6.07;;;;;;;13.88;100.00;100002.19;20769511;28;20088;-70
2022/09/24 20:44:57;;;;;;;12.13;7.38;;;;;;;13.81;100.00;100006.81;20726185;28;20050;-70
2022/09/24 20:55:05;;;;;;;12.52;7.43;;;;;;;13.82;100.00;100008.53;20722148;28;20564;-70
2022/09/24 21:05:07;;;;;;;11.23;7.22;;;;;;;13.75;100.00;100003.53;20722426;28;20062;-71
2022/09/24 21:15:09;;;;;;;12.35;7.70;;;;;;;13.80;100.00;100004.25;20721459;28;20056;-72
2022/09/24 21:25:10;;;;;;;11.52;8.20;;;;;;;13.73;100.00;99992.22;20721726;28;20096;-72
2022/09/24 21:35:11;;;;;;;12.43;8.07;;;;;;;13.54;100.00;99991.97;20720685;28;20478;-72
2022/09/24 21:45:13;;;;;;;14.93;8.50;;;;;;;13.49;100.00;99983.41;20721612;28;20503;-71
2022/09/24 21:55:14;;;;;;;13.32;8.45;;;;;;;13.42;100.00;99985.38;20720521;28;20493;-71
2022/09/24 22:05:18;;;;;;;10.55;6.88;;;;;;;13.48;100.00;99981.69;20722027;28;20477;-71
2022/09/24 22:15:21;;;;;;;14.63;10.13;;;;;;;13.44;100.00;99985.31;20723464;28;20475;-72
2022/09/24 22:25:23;;;;;;;18.83;9.50;;;;;;;13.41;100.00;99981.00;20723826;28;20343;-71
2022/09/24 22:45:44;;;;;;;13.13;8.55;;;;;;;13.33;100.00;99990.94;20738847;28;20565;-71
2022/09/24 22:55:45;;;;;;;15.82;10.02;;;;;;;13.21;100.00;99989.53;20737657;28;20145;-71
2022/09/24 23:05:52;;;;;;;14.82;8.90;;;;;;;13.08;100.00;99991.72;20737748;28;20053;-72
2022/09/24 23:15:54;;;;;;;13.93;9.48;;;;;;;13.15;100.00;99988.91;20738264;28;20077;-71
2022/09/24 23:25:55;;;;;;;16.67;9.52;;;;;;;13.08;100.00;99986.47;20738099;28;20073;-72
2022/09/24 23:35:57;;;;;;;14.32;9.18;;;;;;;13.00;100.00;99985.84;20735474;28;20050;-74
2022/09/24 23:45:58;;;;;;;17.25;10.38;;;;;;;13.01;100.00;99987.56;20733773;28;20069;-72
2022/09/24 23:55:59;;;;;;;13.85;9.23;;;;;;;13.02;100.00;99989.28;20732437;28;20050;-72
